createdAt,value
2023-04-15T05:25:44.360Z,99.90
2023-04-15T05:28:13.400Z,99.90
2023-04-15T05:30:42.606Z,99.90
2023-04-15T05:33:11.637Z,99.90
2023-04-15T05:35:40.883Z,99.90
2023-04-15T05:38:10.013Z,99.90
2023-04-15T05:40:39.029Z,99.90
2023-04-15T05:43:09.520Z,99.90
2023-04-15T05:45:38.545Z,99.90
2023-04-15T05:48:07.923Z,99.90
2023-04-15T05:50:37.715Z,99.90
2023-04-15T05:53:06.798Z,99.90
2023-04-15T05:55:35.770Z,99.90
2023-04-15T05:58:05.208Z,99.90
2023-04-15T06:00:36.863Z,99.90
2023-04-15T06:03:07.044Z,99.90
2023-04-15T06:05:36.486Z,99.90
2023-04-15T06:08:05.727Z,99.90
2023-04-15T06:10:44.459Z,99.90
2023-04-15T06:13:13.677Z,99.90
2023-04-15T06:15:45.202Z,99.90
2023-04-15T06:18:14.811Z,99.90
2023-04-15T06:20:44.038Z,99.90
2023-04-15T06:23:13.248Z,99.90
2023-04-15T06:25:42.533Z,99.90
2023-04-15T06:28:11.804Z,99.90
2023-04-15T06:30:40.969Z,99.90
2023-04-15T06:33:11.711Z,99.90
2023-04-15T06:35:40.810Z,99.90
2023-04-15T06:38:10.094Z,99.90
2023-04-15T06:40:39.178Z,99.90
2023-04-15T06:43:12.865Z,99.90
2023-04-15T06:45:42.469Z,99.90
2023-04-15T06:48:13.368Z,99.90
2023-04-15T06:50:42.478Z,99.90
2023-04-15T06:53:11.629Z,99.90
2023-04-15T06:55:40.765Z,99.90
2023-04-15T06:58:10.002Z,99.90
2023-04-15T07:00:39.555Z,99.90
2023-04-15T07:03:11.454Z,99.90
2023-04-15T07:05:42.243Z,99.90
2023-04-15T07:08:11.608Z,99.90
2023-04-15T07:10:40.771Z,99.90
2023-04-15T07:13:09.890Z,99.90
2023-04-15T07:15:39.068Z,99.90
2023-04-15T07:18:08.047Z,99.90
2023-04-15T07:20:37.492Z,99.90
2023-04-15T07:23:08.248Z,99.90
2023-04-15T07:25:37.434Z,99.90
2023-04-15T07:28:06.720Z,99.90
2023-04-15T07:30:35.852Z,99.90
2023-04-15T07:33:05.200Z,99.90
2023-04-15T07:35:34.272Z,99.90
2023-04-15T07:38:03.395Z,99.90
2023-04-15T07:40:34.516Z,99.90
2023-04-15T07:43:03.804Z,99.90
2023-04-15T07:45:33.087Z,99.90
2023-04-15T07:48:02.265Z,99.90
2023-04-15T07:50:31.387Z,99.90
2023-04-15T07:53:00.692Z,99.90
2023-04-15T07:55:32.366Z,99.90
2023-04-15T07:58:02.931Z,99.90
2023-04-15T08:00:32.332Z,99.90
2023-04-15T08:03:01.485Z,99.90
2023-04-15T08:05:30.722Z,99.90
2023-04-15T08:08:00.057Z,99.90
2023-04-15T08:10:29.316Z,99.90
2023-04-15T08:12:58.717Z,99.90
2023-04-15T08:15:29.640Z,99.90
2023-04-15T08:18:01.052Z,99.90
2023-04-15T08:20:30.280Z,99.90
2023-04-15T08:22:59.372Z,99.90
2023-04-15T08:25:28.592Z,99.90
2023-04-15T08:27:58.285Z,99.90
2023-04-15T08:30:28.804Z,99.90
2023-04-15T08:32:57.851Z,99.90
2023-04-15T08:35:26.955Z,99.90
2023-04-15T08:37:56.097Z,99.90
2023-04-15T08:40:29.461Z,99.90
2023-04-15T08:43:01.608Z,99.90
2023-04-15T08:45:32.473Z,99.90
2023-04-15T08:48:04.994Z,99.90
2023-04-15T08:50:34.452Z,99.90
2023-04-15T08:53:04.094Z,99.90
2023-04-15T08:55:37.922Z,99.90
2023-04-15T08:58:07.795Z,99.90
2023-04-15T09:00:38.641Z,99.90
2023-04-15T09:03:08.583Z,99.90
2023-04-15T09:05:38.688Z,99.90
2023-04-15T09:08:08.074Z,99.90
2023-04-15T09:10:37.216Z,99.90
2023-04-15T09:13:06.333Z,99.90
2023-04-15T09:15:37.199Z,99.90
2023-04-15T09:18:09.981Z,99.90
2023-04-15T09:20:42.653Z,99.90
2023-04-15T09:23:15.561Z,99.90
2023-04-15T09:25:44.753Z,99.90
2023-04-15T09:28:13.800Z,99.90
2023-04-15T09:30:46.871Z,99.90
2023-04-15T09:33:18.210Z,99.90
2023-04-15T09:35:59.482Z,99.90
2023-04-15T09:38:28.843Z,99.90
2023-04-15T09:40:58.360Z,99.90
2023-04-15T09:43:40.360Z,99.90
2023-04-15T09:46:09.547Z,99.90
2023-04-15T09:48:40.288Z,99.90
2023-04-15T09:51:09.726Z,99.90
2023-04-15T09:53:39.714Z,99.90
2023-04-15T09:56:10.812Z,99.90
2023-04-15T09:58:41.881Z,99.90
2023-04-15T10:01:12.035Z,99.90
2023-04-15T10:03:43.979Z,99.90
2023-04-15T10:06:13.567Z,99.90
2023-04-15T10:11:33.260Z,99.90
2023-04-15T10:14:09.229Z,99.90
2023-04-15T10:16:42.981Z,99.90
2023-04-15T10:19:14.777Z,99.90
2023-04-15T10:21:45.479Z,99.90
2023-04-15T10:24:15.315Z,99.90
2023-04-15T10:26:45.994Z,99.90
2023-04-15T10:29:17.931Z,99.90
2023-04-15T10:31:50.238Z,99.90
2023-04-15T10:34:21.485Z,99.90
2023-04-15T10:36:51.160Z,99.90
2023-04-15T10:39:45.607Z,99.90
2023-04-15T10:42:29.116Z,99.90
2023-04-15T10:44:59.159Z,99.90
2023-04-15T10:47:29.802Z,99.90
2023-04-15T10:50:03.085Z,99.90
2023-04-15T10:52:36.003Z,99.90
2023-04-15T10:55:06.043Z,99.90
2023-04-15T10:57:40.757Z,99.90
2023-04-15T11:00:15.261Z,99.90
2023-04-15T11:02:46.956Z,99.90
2023-04-15T11:05:28.436Z,99.90
2023-04-15T11:07:58.902Z,99.90
2023-04-15T11:10:58.277Z,99.90
2023-04-15T11:13:29.676Z,99.90
2023-04-15T11:16:01.722Z,99.90
2023-04-15T11:18:35.919Z,99.90
2023-04-15T11:21:08.518Z,99.90
2023-04-15T11:23:47.169Z,99.90
2023-04-15T11:26:16.583Z,99.90
2023-04-15T11:28:46.608Z,99.90
2023-04-15T11:31:17.116Z,99.90
2023-04-15T11:33:55.892Z,99.90
2023-04-15T11:36:28.860Z,99.90
2023-04-15T11:39:21.926Z,99.90
2023-04-15T11:41:54.245Z,99.90
2023-04-15T11:44:23.480Z,99.90
2023-04-15T11:46:52.759Z,99.90
2023-04-15T11:49:34.324Z,99.90
2023-04-15T11:52:13.251Z,99.90
2023-04-15T11:54:44.598Z,99.90
2023-04-15T11:57:13.720Z,99.90
2023-04-15T11:59:46.421Z,99.90
2023-04-15T12:02:16.044Z,99.90
2023-04-15T12:04:46.465Z,99.90
2023-04-15T12:07:17.117Z,99.90
2023-04-15T12:09:57.071Z,99.90
2023-04-15T12:12:33.144Z,99.90
2023-04-15T12:15:03.565Z,99.90
2023-04-15T12:17:51.585Z,99.90
2023-04-15T12:20:26.966Z,99.90
2023-04-15T12:23:07.877Z,99.90
2023-04-15T12:25:38.686Z,99.90
2023-04-15T12:28:13.364Z,99.90
2023-04-15T12:30:51.841Z,99.90
2023-04-15T12:33:20.970Z,99.90
2023-04-15T12:35:57.388Z,99.90
2023-04-15T12:38:29.742Z,99.90
2023-04-15T12:40:59.538Z,99.90
2023-04-15T12:43:31.762Z,99.90
2023-04-15T12:46:01.048Z,99.90
2023-04-15T12:48:32.201Z,99.90
2023-04-15T12:51:07.090Z,99.90
2023-04-15T12:53:39.418Z,99.90
2023-04-15T12:56:09.211Z,99.90
2023-04-15T12:58:38.371Z,99.90
2023-04-15T13:01:07.860Z,99.90
2023-04-15T13:03:37.276Z,99.90
2023-04-15T13:06:07.245Z,99.90
2023-04-15T13:08:38.465Z,99.90
2023-04-15T13:11:11.365Z,99.90
2023-04-15T13:13:42.674Z,99.90
2023-04-15T13:16:11.985Z,99.90
2023-04-15T13:18:41.349Z,99.90
2023-04-15T13:21:11.342Z,99.90
2023-04-15T13:23:46.010Z,97.90
2023-04-15T13:26:16.684Z,91.70
2023-04-15T13:28:45.811Z,93.10
2023-04-15T13:31:15.014Z,92.60
2023-04-15T13:33:44.420Z,93.10
2023-04-15T13:36:13.527Z,96.10
2023-04-15T13:38:50.488Z,96.30
2023-04-15T13:41:23.134Z,95.20
2023-04-15T13:43:52.523Z,94.10
2023-04-15T13:46:21.988Z,95.50
2023-04-15T13:48:52.479Z,94.40
2023-04-15T13:51:31.703Z,94.30
2023-04-15T13:54:05.589Z,95.40
2023-04-15T13:56:36.570Z,96.70
2023-04-15T13:59:07.485Z,96.30
2023-04-15T14:01:37.708Z,97.90
2023-04-15T14:04:07.263Z,99.90
2023-04-15T14:06:36.520Z,97.50
2023-04-15T14:09:05.904Z,99.90
2023-04-15T14:11:37.122Z,99.90
2023-04-15T14:14:06.784Z,99.90
2023-04-15T14:16:36.604Z,99.90
2023-04-15T14:19:06.011Z,99.90
2023-04-15T14:21:35.445Z,99.90
2023-04-15T14:24:04.444Z,99.90
2023-04-15T14:26:33.600Z,99.90
2023-04-15T14:29:04.331Z,99.90
2023-04-15T14:31:33.651Z,99.90
2023-04-15T14:34:03.238Z,99.90
2023-04-15T14:36:33.855Z,99.90
2023-04-15T14:39:03.237Z,99.90
2023-04-15T14:41:35.447Z,99.90
2023-04-15T14:44:06.312Z,99.90
2023-04-15T14:46:35.681Z,99.90
2023-04-15T14:49:05.001Z,99.90
2023-04-15T14:51:34.873Z,99.90
2023-04-15T14:54:04.313Z,99.90
2023-04-15T14:56:33.571Z,99.90
2023-04-15T14:59:03.003Z,99.90
2023-04-15T15:01:34.129Z,99.90
2023-04-15T15:04:03.427Z,99.90
2023-04-15T15:06:33.323Z,99.90
2023-04-15T15:09:02.880Z,99.90
2023-04-15T15:11:32.150Z,99.90
2023-04-15T15:14:01.405Z,99.90
2023-04-15T15:16:30.811Z,99.90
2023-04-15T15:19:01.644Z,99.90
2023-04-15T15:21:31.398Z,99.90
2023-04-15T15:24:00.762Z,99.90
2023-04-15T15:26:30.873Z,99.90
2023-04-15T15:29:01.488Z,99.90
2023-04-15T15:31:30.733Z,99.90
2023-04-15T15:34:01.361Z,99.90
2023-04-15T15:36:32.219Z,99.90
2023-04-15T15:39:01.384Z,99.90
2023-04-15T15:41:30.546Z,99.90
2023-04-15T15:44:01.877Z,99.90
2023-04-15T15:46:31.690Z,99.90
2023-04-15T15:49:04.833Z,99.90
2023-04-15T15:51:34.304Z,99.90
2023-04-15T15:54:03.454Z,99.90
2023-04-15T15:56:33.524Z,99.90
2023-04-15T15:59:02.991Z,99.90
2023-04-15T16:01:32.618Z,99.90
2023-04-15T16:04:03.648Z,99.90
2023-04-15T16:06:35.055Z,99.90
2023-04-15T16:09:04.937Z,99.90
2023-04-15T16:11:34.373Z,99.90
2023-04-15T16:14:03.594Z,99.90
2023-04-15T16:16:33.124Z,99.90
2023-04-15T16:19:04.215Z,99.90
2023-04-15T16:21:33.756Z,99.90
2023-04-15T16:24:03.917Z,99.90
2023-04-15T16:26:33.316Z,99.90
2023-04-15T16:29:03.595Z,99.90
2023-04-15T16:31:33.199Z,99.90
2023-04-15T16:34:04.645Z,99.90
2023-04-15T16:36:35.389Z,99.90
2023-04-15T16:39:04.740Z,99.90
2023-04-15T16:41:34.695Z,99.90
2023-04-15T16:44:03.952Z,99.90
2023-04-15T16:46:33.328Z,99.90
2023-04-15T16:49:04.370Z,99.90
2023-04-15T16:51:34.324Z,99.90
2023-04-15T16:54:03.848Z,99.90
2023-04-15T16:56:33.027Z,99.90
2023-04-15T16:59:02.376Z,99.90
2023-04-15T17:01:31.901Z,99.90
2023-04-15T17:04:01.197Z,99.90
2023-04-15T17:06:31.844Z,99.90
2023-04-15T17:09:01.118Z,99.90
2023-04-15T17:11:30.675Z,99.90
2023-04-15T17:14:00.080Z,99.90
2023-04-15T17:16:29.387Z,99.90
2023-04-15T17:18:58.728Z,99.90
2023-04-15T17:21:28.284Z,99.90
2023-04-15T17:23:59.327Z,99.90
2023-04-15T17:26:28.523Z,99.90
2023-04-15T17:28:57.879Z,99.90
2023-04-15T17:31:27.354Z,99.90
2023-04-15T17:34:04.623Z,99.90
2023-04-15T17:36:38.579Z,99.90
2023-04-15T17:39:09.205Z,99.90
2023-04-15T17:41:39.699Z,99.90
2023-04-15T17:44:08.979Z,99.90
2023-04-15T17:46:38.209Z,99.90
2023-04-15T17:49:07.564Z,99.90
2023-04-15T17:51:36.808Z,99.90
2023-04-15T17:54:10.526Z,99.90
2023-04-15T17:56:39.817Z,99.90
2023-04-15T17:59:10.169Z,99.90
2023-04-15T18:01:39.913Z,99.90
2023-04-15T18:04:09.733Z,99.90
2023-04-15T18:06:39.503Z,99.90
2023-04-15T18:09:10.433Z,99.90
2023-04-15T18:11:44.716Z,99.90
2023-04-15T18:14:30.807Z,99.90
2023-04-15T18:43:49.064Z,99.90
2023-04-15T19:04:01.934Z,99.90
2023-04-15T19:06:31.328Z,99.90
2023-04-15T19:09:00.527Z,99.90
2023-04-15T19:11:29.567Z,99.90
2023-04-15T19:13:58.687Z,99.90
2023-04-15T19:16:27.882Z,99.90
2023-04-15T19:18:57.162Z,99.90
2023-04-15T19:21:28.190Z,99.90
2023-04-15T19:23:58.011Z,99.90
2023-04-15T19:26:27.089Z,99.90
2023-04-15T19:28:59.081Z,99.90
2023-04-15T19:31:28.161Z,99.90
2023-04-15T19:33:57.479Z,99.90
2023-04-15T19:36:28.842Z,99.90
2023-04-15T19:38:58.004Z,99.90
2023-04-15T19:41:27.038Z,99.90
2023-04-15T19:43:56.250Z,99.90
2023-04-15T19:46:25.482Z,99.90
2023-04-15T19:48:54.747Z,99.90
2023-04-15T19:51:23.898Z,99.90
2023-04-15T19:53:56.401Z,99.90
2023-04-15T19:56:26.051Z,99.90
2023-04-15T19:58:56.848Z,99.90
2023-04-15T20:01:26.113Z,99.90
2023-04-15T20:03:55.742Z,99.90
2023-04-15T20:06:25.248Z,99.90
2023-04-15T20:08:56.216Z,99.90
2023-04-15T20:12:46.058Z,99.90
2023-04-15T20:14:19.073Z,99.90
2023-04-15T20:16:48.110Z,99.90
2023-04-15T20:19:17.709Z,99.90
2023-04-15T20:21:47.307Z,99.90
2023-04-15T20:24:18.650Z,99.90
2023-04-15T20:26:47.764Z,99.90
2023-04-15T20:29:16.686Z,99.90
2023-04-15T20:31:46.006Z,99.90
2023-04-15T20:34:15.163Z,99.90
2023-04-15T20:36:44.108Z,99.90
2023-04-15T20:39:13.087Z,99.90
2023-04-15T20:41:44.006Z,99.90
2023-04-15T20:44:13.037Z,99.90
2023-04-15T20:46:41.976Z,99.90
2023-04-15T20:49:10.987Z,99.90
2023-04-15T20:51:39.987Z,99.90
2023-04-15T20:54:09.360Z,99.90
2023-04-15T20:56:38.440Z,99.90
2023-04-15T20:59:09.046Z,99.90
2023-04-15T21:01:38.045Z,99.90
2023-04-15T21:04:07.310Z,99.90
2023-04-15T21:06:36.887Z,99.90
2023-04-15T21:09:06.327Z,99.90
2023-04-15T21:14:10.126Z,99.90
2023-04-15T21:16:39.286Z,99.90
2023-04-15T21:19:09.240Z,99.90
2023-04-15T21:21:38.598Z,99.90
2023-04-15T21:24:08.399Z,99.90
2023-04-15T21:26:37.442Z,99.90
2023-04-15T21:29:08.694Z,99.90
2023-04-15T21:31:41.521Z,99.90
2023-04-15T21:34:10.794Z,99.90
2023-04-15T21:36:40.372Z,99.90
2023-04-15T21:39:09.832Z,99.90
2023-04-15T21:41:39.288Z,99.90
2023-04-15T21:44:08.329Z,99.90
2023-04-15T21:46:37.416Z,99.90
2023-04-15T21:49:09.911Z,99.90
2023-04-15T21:51:39.006Z,99.90
2023-04-15T21:54:07.993Z,99.90
2023-04-15T21:56:38.178Z,99.90
2023-04-15T21:59:07.623Z,99.90
2023-04-15T22:01:36.984Z,99.90
2023-04-15T22:04:07.702Z,99.90
2023-04-15T22:06:38.398Z,99.90
2023-04-15T22:09:07.403Z,99.90
2023-04-15T22:11:36.385Z,99.90
2023-04-15T22:14:05.970Z,99.90
2023-04-15T22:16:35.315Z,99.90
2023-04-15T22:19:04.603Z,99.90
2023-04-15T22:21:33.925Z,99.90
2023-04-15T22:24:38.698Z,99.90
2023-04-15T22:26:54.117Z,99.90
2023-04-15T22:29:23.847Z,99.90
2023-04-15T22:31:53.048Z,99.90
2023-04-15T22:34:22.269Z,99.90
2023-04-15T22:36:52.164Z,99.90
2023-04-15T22:39:22.880Z,99.90
2023-04-15T22:41:52.292Z,99.90
2023-04-15T22:44:21.276Z,99.90
2023-04-15T22:46:52.441Z,99.90
2023-04-15T22:49:21.432Z,99.90
2023-04-15T22:51:50.485Z,99.90
2023-04-15T22:54:19.440Z,99.90
2023-04-15T22:56:49.876Z,99.90
2023-04-15T22:59:19.321Z,99.90
2023-04-15T23:01:48.869Z,99.90
2023-04-15T23:04:25.872Z,99.90
2023-04-15T23:06:56.949Z,99.90
2023-04-15T23:09:26.002Z,99.90
2023-04-15T23:11:57.364Z,99.90
2023-04-15T23:14:28.310Z,99.90
2023-04-15T23:16:58.326Z,99.90
2023-04-15T23:19:27.642Z,99.90
2023-04-15T23:21:56.670Z,99.90
2023-04-15T23:24:25.712Z,99.90
2023-04-15T23:26:57.441Z,99.90
2023-04-15T23:29:26.473Z,99.90
2023-04-15T23:31:55.678Z,99.90
2023-04-15T23:34:24.786Z,99.90
2023-04-15T23:36:53.891Z,99.90
